Gray, PA (15544)

7:41 AM EST on January 27, 2015 (GMT -0500)
Out in the country | Change Station
CLOSE
Current Station
Personal Weather Station
Location: Somerset, PA
Elevation: 2200 ft
Nearby Weather Stations

Elev 2200 ft 40.07 °N, 79.17 °W | Updated 0 second ago

Overcast
Overcast
16.7 °F
Feels Like 17 °F
N
2.0
Wind Variable Wind from NW
Gusts 11.0 mph

Today
High -- | Low -- °F
--% Chance of Precip.
Yesterday
High -- | Low -- °F
Precip. -- in
7:29 AM 5:28 PM
First Quarter, 54% visible
Pressure 29.76 in
Visibility 4.0 miles
Clouds Overcast 600 ft
Windchill 17 °F
Dew Point 15 °F
Humidity 93%
Rainfall 0.00 in
Snow Depth Not available.
UV 0 out of 12
Pollen .10 out of 12
Air Quality Not available.
Flu Activity Not available.
SPECI KJST 271227Z AUTO 30009KT 4SM -SN BR OVC006 M09/M11 A2976 RMK AO2 CIG 005V008 P0000 T10891106

More Conditions Fewer Conditions

Pressure 29.76 in
Visibility 4.0 miles
Clouds Overcast 600 ft
Windchill 17 °F
Dew Point 15 °F
Humidity 93%
Rainfall 0.00 in
Snow Depth Not available.
UV 0 out of 12
Pollen .10 out of 12
Air Quality Not available.
Flu Activity Not available.
SPECI KJST 271227Z AUTO 30009KT 4SM -SN BR OVC006 M09/M11 A2976 RMK AO2 CIG 005V008 P0000 T10891106

More Conditions Fewer Conditions

10-Day Weather Forecast

Almanac

Astronomy

Jan. 27, 2015 Rise Set
Actual Time
Civil Twilight
Nautical Twilight
Astronomical Twilight
Moon
Length of Visible Light
Length of Day
Tomorrow will be .
, % of the Moon is Illuminated

Today's Extremes

State Highs State Lows

Community

WunderPhotos

Upload Photos

1,790,591 photos uploaded!

WunderBlogs® & News

Nearby

Air Quality

  Air Quality AQ Index Pollutant
Not available.

Snow Depth

Station Depth Elevation

Earthquake Activity

City Distance Mag. Time & Date
Minimum magnitude displayed is 2.5.

Coastal Water Temperatures

Place Temperature

Nearby Weather Stations